sensor_id;sensor_type;location;lat;lon;timestamp;P1;durP1;ratioP1;P2;durP2;ratioP2
17949;SDS011;9100;48.700;9.316;2022-10-31T00:00:57;12.1;;;5.9;;
17949;SDS011;9100;48.700;9.316;2022-10-31T00:01:57;12.1;;;5.9;;
17949;SDS011;9100;48.700;9.316;2022-10-31T00:02:57;12.1;;;5.9;;
17949;SDS011;9100;48.700;9.316;2022-10-31T00:03:08;7;;;6.1;;
17949;SDS011;9100;48.700;9.316;2022-10-31T00:03:57;7;;;6.1;;
17949;SDS011;9100;48.700;9.316;2022-10-31T00:04:57;7;;;6.1;;
17949;SDS011;9100;48.700;9.316;2022-10-31T00:05:58;7;;;6.1;;
17949;SDS011;9100;48.700;9.316;2022-10-31T00:06:57;7;;;6.1;;
17949;SDS011;9100;48.700;9.316;2022-10-31T00:07:57;7;;;6.1;;
17949;SDS011;9100;48.700;9.316;2022-10-31T00:08:08;6.7;;;5.6;;
17949;SDS011;9100;48.700;9.316;2022-10-31T00:08:58;6.7;;;5.6;;
17949;SDS011;9100;48.700;9.316;2022-10-31T00:09:57;6.7;;;5.6;;
17949;SDS011;9100;48.700;9.316;2022-10-31T00:10:58;6.7;;;5.6;;
17949;SDS011;9100;48.700;9.316;2022-10-31T00:11:57;6.7;;;5.6;;
17949;SDS011;9100;48.700;9.316;2022-10-31T00:12:57;6.7;;;5.6;;
17949;SDS011;9100;48.700;9.316;2022-10-31T00:13:08;6.6;;;5.9;;
17949;SDS011;9100;48.700;9.316;2022-10-31T00:13:58;6.6;;;5.9;;
17949;SDS011;9100;48.700;9.316;2022-10-31T00:14:57;6.6;;;5.9;;
17949;SDS011;9100;48.700;9.316;2022-10-31T00:15:57;6.6;;;5.9;;
17949;SDS011;9100;48.700;9.316;2022-10-31T00:16:57;6.6;;;5.9;;
17949;SDS011;9100;48.700;9.316;2022-10-31T00:17:58;6.6;;;5.9;;
17949;SDS011;9100;48.700;9.316;2022-10-31T00:18:08;14.4;;;6.8;;
17949;SDS011;9100;48.700;9.316;2022-10-31T00:18:58;14.4;;;6.8;;
17949;SDS011;9100;48.700;9.316;2022-10-31T00:19:57;14.4;;;6.8;;
17949;SDS011;9100;48.700;9.316;2022-10-31T00:20:58;14.4;;;6.8;;
17949;SDS011;9100;48.700;9.316;2022-10-31T00:21:57;14.4;;;6.8;;
17949;SDS011;9100;48.700;9.316;2022-10-31T00:22:58;14.4;;;6.8;;
17949;SDS011;9100;48.700;9.316;2022-10-31T00:23:08;13.6;;;7.1;;
17949;SDS011;9100;48.700;9.316;2022-10-31T00:23:58;13.6;;;7.1;;
17949;SDS011;9100;48.700;9.316;2022-10-31T00:24:57;13.6;;;7.1;;
17949;SDS011;9100;48.700;9.316;2022-10-31T00:25:59;13.6;;;7.1;;
17949;SDS011;9100;48.700;9.316;2022-10-31T00:26:57;13.6;;;7.1;;
17949;SDS011;9100;48.700;9.316;2022-10-31T00:27:57;13.6;;;7.1;;
17949;SDS011;9100;48.700;9.316;2022-10-31T00:28:08;7.2;;;6.5;;
17949;SDS011;9100;48.700;9.316;2022-10-31T00:28:58;7.2;;;6.5;;
17949;SDS011;9100;48.700;9.316;2022-10-31T00:29:57;7.2;;;6.5;;
17949;SDS011;9100;48.700;9.316;2022-10-31T00:30:58;7.2;;;6.5;;
17949;SDS011;9100;48.700;9.316;2022-10-31T00:31:57;7.2;;;6.5;;
17949;SDS011;9100;48.700;9.316;2022-10-31T00:32:57;7.2;;;6.5;;
17949;SDS011;9100;48.700;9.316;2022-10-31T00:33:08;6.8;;;6.1;;
17949;SDS011;9100;48.700;9.316;2022-10-31T00:33:58;6.8;;;6.1;;
17949;SDS011;9100;48.700;9.316;2022-10-31T00:34:57;6.8;;;6.1;;
17949;SDS011;9100;48.700;9.316;2022-10-31T00:35:57;6.8;;;6.1;;
17949;SDS011;9100;48.700;9.316;2022-10-31T00:36:57;6.8;;;6.1;;
17949;SDS011;9100;48.700;9.316;2022-10-31T00:37:57;6.8;;;6.1;;
17949;SDS011;9100;48.700;9.316;2022-10-31T00:38:08;9.6;;;6.8;;
17949;SDS011;9100;48.700;9.316;2022-10-31T00:38:58;9.6;;;6.8;;
17949;SDS011;9100;48.700;9.316;2022-10-31T00:39:57;9.6;;;6.8;;
17949;SDS011;9100;48.700;9.316;2022-10-31T00:40:58;9.6;;;6.8;;
17949;SDS011;9100;48.700;9.316;2022-10-31T00:41:57;9.6;;;6.8;;
17949;SDS011;9100;48.700;9.316;2022-10-31T00:42:57;9.6;;;6.8;;
17949;SDS011;9100;48.700;9.316;2022-10-31T00:43:08;11.6;;;6.6;;
17949;SDS011;9100;48.700;9.316;2022-10-31T00:43:58;11.6;;;6.6;;
17949;SDS011;9100;48.700;9.316;2022-10-31T00:44:57;11.6;;;6.6;;
17949;SDS011;9100;48.700;9.316;2022-10-31T00:45:58;11.6;;;6.6;;
17949;SDS011;9100;48.700;9.316;2022-10-31T00:46:57;11.6;;;6.6;;
17949;SDS011;9100;48.700;9.316;2022-10-31T00:47:57;11.6;;;6.6;;
17949;SDS011;9100;48.700;9.316;2022-10-31T00:48:08;11;;;5.7;;
17949;SDS011;9100;48.700;9.316;2022-10-31T00:48:58;11;;;5.7;;
17949;SDS011;9100;48.700;9.316;2022-10-31T00:49:57;11;;;5.7;;
17949;SDS011;9100;48.700;9.316;2022-10-31T00:50:58;11;;;5.7;;
17949;SDS011;9100;48.700;9.316;2022-10-31T00:51:58;11;;;5.7;;
17949;SDS011;9100;48.700;9.316;2022-10-31T00:52:58;11;;;5.7;;
17949;SDS011;9100;48.700;9.316;2022-10-31T00:53:08;8.5;;;5.5;;
17949;SDS011;9100;48.700;9.316;2022-10-31T00:53:58;8.5;;;5.5;;
17949;SDS011;9100;48.700;9.316;2022-10-31T00:54:58;8.5;;;5.5;;
17949;SDS011;9100;48.700;9.316;2022-10-31T00:55:58;8.5;;;5.5;;
17949;SDS011;9100;48.700;9.316;2022-10-31T00:56:57;8.5;;;5.5;;
17949;SDS011;9100;48.700;9.316;2022-10-31T00:57:57;8.5;;;5.5;;
17949;SDS011;9100;48.700;9.316;2022-10-31T00:58:08;10.3;;;5.5;;
17949;SDS011;9100;48.700;9.316;2022-10-31T00:58:58;10.3;;;5.5;;
17949;SDS011;9100;48.700;9.316;2022-10-31T00:59:57;10.3;;;5.5;;
17949;SDS011;9100;48.700;9.316;2022-10-31T01:00:58;10.3;;;5.5;;
17949;SDS011;9100;48.700;9.316;2022-10-31T01:01:57;10.3;;;5.5;;
17949;SDS011;9100;48.700;9.316;2022-10-31T01:02:57;10.3;;;5.5;;
17949;SDS011;9100;48.700;9.316;2022-10-31T01:03:08;5.6;;;5;;
17949;SDS011;9100;48.700;9.316;2022-10-31T01:03:58;5.6;;;5;;
17949;SDS011;9100;48.700;9.316;2022-10-31T01:04:58;5.6;;;5;;
17949;SDS011;9100;48.700;9.316;2022-10-31T01:05:59;5.6;;;5;;
17949;SDS011;9100;48.700;9.316;2022-10-31T01:06:58;5.6;;;5;;
17949;SDS011;9100;48.700;9.316;2022-10-31T01:07:58;5.6;;;5;;
17949;SDS011;9100;48.700;9.316;2022-10-31T01:08:08;9.4;;;5.8;;
17949;SDS011;9100;48.700;9.316;2022-10-31T01:08:58;9.4;;;5.8;;
17949;SDS011;9100;48.700;9.316;2022-10-31T01:09:57;9.4;;;5.8;;
17949;SDS011;9100;48.700;9.316;2022-10-31T01:10:59;9.4;;;5.8;;
17949;SDS011;9100;48.700;9.316;2022-10-31T01:11:58;9.4;;;5.8;;
17949;SDS011;9100;48.700;9.316;2022-10-31T01:12:57;9.4;;;5.8;;
17949;SDS011;9100;48.700;9.316;2022-10-31T01:13:08;9.3;;;5.4;;
17949;SDS011;9100;48.700;9.316;2022-10-31T01:13:58;9.3;;;5.4;;
17949;SDS011;9100;48.700;9.316;2022-10-31T01:14:57;9.3;;;5.4;;
17949;SDS011;9100;48.700;9.316;2022-10-31T01:15:58;9.3;;;5.4;;
17949;SDS011;9100;48.700;9.316;2022-10-31T01:16:57;9.3;;;5.4;;
17949;SDS011;9100;48.700;9.316;2022-10-31T01:17:57;9.3;;;5.4;;
17949;SDS011;9100;48.700;9.316;2022-10-31T01:18:08;7;;;5.7;;
17949;SDS011;9100;48.700;9.316;2022-10-31T01:18:58;7;;;5.7;;
17949;SDS011;9100;48.700;9.316;2022-10-31T01:19:58;7;;;5.7;;
17949;SDS011;9100;48.700;9.316;2022-10-31T01:20:59;7;;;5.7;;
17949;SDS011;9100;48.700;9.316;2022-10-31T01:21:57;7;;;5.7;;
17949;SDS011;9100;48.700;9.316;2022-10-31T01:22:57;7;;;5.7;;
17949;SDS011;9100;48.700;9.316;2022-10-31T01:23:08;11.6;;;6;;
17949;SDS011;9100;48.700;9.316;2022-10-31T01:23:58;11.6;;;6;;
17949;SDS011;9100;48.700;9.316;2022-10-31T01:24:58;11.6;;;6;;
17949;SDS011;9100;48.700;9.316;2022-10-31T01:25:58;11.6;;;6;;
17949;SDS011;9100;48.700;9.316;2022-10-31T01:26:57;11.6;;;6;;
17949;SDS011;9100;48.700;9.316;2022-10-31T01:27:57;11.6;;;6;;
17949;SDS011;9100;48.700;9.316;2022-10-31T01:28:08;8.6;;;5.9;;
17949;SDS011;9100;48.700;9.316;2022-10-31T01:28:58;8.6;;;5.9;;
17949;SDS011;9100;48.700;9.316;2022-10-31T01:29:58;8.6;;;5.9;;
17949;SDS011;9100;48.700;9.316;2022-10-31T01:31:00;8.6;;;5.9;;
17949;SDS011;9100;48.700;9.316;2022-10-31T01:31:57;8.6;;;5.9;;
17949;SDS011;9100;48.700;9.316;2022-10-31T01:32:58;8.6;;;5.9;;
17949;SDS011;9100;48.700;9.316;2022-10-31T01:33:08;9.4;;;6.2;;
17949;SDS011;9100;48.700;9.316;2022-10-31T01:33:58;9.4;;;6.2;;
17949;SDS011;9100;48.700;9.316;2022-10-31T01:34:57;9.4;;;6.2;;
17949;SDS011;9100;48.700;9.316;2022-10-31T01:35:58;9.4;;;6.2;;
17949;SDS011;9100;48.700;9.316;2022-10-31T01:36:58;9.4;;;6.2;;
17949;SDS011;9100;48.700;9.316;2022-10-31T01:37:57;9.4;;;6.2;;
17949;SDS011;9100;48.700;9.316;2022-10-31T01:38:08;7.2;;;5.6;;
17949;SDS011;9100;48.700;9.316;2022-10-31T01:38:59;7.2;;;5.6;;
17949;SDS011;9100;48.700;9.316;2022-10-31T01:39:57;7.2;;;5.6;;
17949;SDS011;9100;48.700;9.316;2022-10-31T01:40:57;7.2;;;5.6;;
17949;SDS011;9100;48.700;9.316;2022-10-31T01:41:58;7.2;;;5.6;;
17949;SDS011;9100;48.700;9.316;2022-10-31T01:42:58;7.2;;;5.6;;
17949;SDS011;9100;48.700;9.316;2022-10-31T01:43:09;16.4;;;6.7;;
17949;SDS011;9100;48.700;9.316;2022-10-31T01:43:58;16.4;;;6.7;;
17949;SDS011;9100;48.700;9.316;2022-10-31T01:44:59;16.4;;;6.7;;
17949;SDS011;9100;48.700;9.316;2022-10-31T01:45:58;16.4;;;6.7;;
17949;SDS011;9100;48.700;9.316;2022-10-31T01:46:58;16.4;;;6.7;;
17949;SDS011;9100;48.700;9.316;2022-10-31T01:47:58;16.4;;;6.7;;
17949;SDS011;9100;48.700;9.316;2022-10-31T01:48:10;9.5;;;5.5;;
17949;SDS011;9100;48.700;9.316;2022-10-31T01:48:58;9.5;;;5.5;;
17949;SDS011;9100;48.700;9.316;2022-10-31T01:49:59;9.5;;;5.5;;
17949;SDS011;9100;48.700;9.316;2022-10-31T01:50:58;9.5;;;5.5;;
17949;SDS011;9100;48.700;9.316;2022-10-31T01:51:58;9.5;;;5.5;;
17949;SDS011;9100;48.700;9.316;2022-10-31T01:52:58;9.5;;;5.5;;
17949;SDS011;9100;48.700;9.316;2022-10-31T01:53:08;8.9;;;6.1;;
17949;SDS011;9100;48.700;9.316;2022-10-31T01:53:59;8.9;;;6.1;;
17949;SDS011;9100;48.700;9.316;2022-10-31T01:54:58;8.9;;;6.1;;
17949;SDS011;9100;48.700;9.316;2022-10-31T01:55:58;8.9;;;6.1;;
17949;SDS011;9100;48.700;9.316;2022-10-31T01:56:58;8.9;;;6.1;;
17949;SDS011;9100;48.700;9.316;2022-10-31T01:57:59;8.9;;;6.1;;
17949;SDS011;9100;48.700;9.316;2022-10-31T01:58:09;7.4;;;5.9;;
17949;SDS011;9100;48.700;9.316;2022-10-31T01:58:58;7.4;;;5.9;;
17949;SDS011;9100;48.700;9.316;2022-10-31T01:59:59;7.4;;;5.9;;
17949;SDS011;9100;48.700;9.316;2022-10-31T02:00:59;7.4;;;5.9;;
17949;SDS011;9100;48.700;9.316;2022-10-31T02:01:58;7.4;;;5.9;;
17949;SDS011;9100;48.700;9.316;2022-10-31T02:02:58;7.4;;;5.9;;
17949;SDS011;9100;48.700;9.316;2022-10-31T02:03:08;9.2;;;5.8;;
17949;SDS011;9100;48.700;9.316;2022-10-31T02:03:58;9.2;;;5.8;;
17949;SDS011;9100;48.700;9.316;2022-10-31T02:04:58;9.2;;;5.8;;
17949;SDS011;9100;48.700;9.316;2022-10-31T02:05:58;9.2;;;5.8;;
17949;SDS011;9100;48.700;9.316;2022-10-31T02:06:58;9.2;;;5.8;;
17949;SDS011;9100;48.700;9.316;2022-10-31T02:07:58;9.2;;;5.8;;
17949;SDS011;9100;48.700;9.316;2022-10-31T02:08:09;7.5;;;5.7;;
17949;SDS011;9100;48.700;9.316;2022-10-31T02:08:58;7.5;;;5.7;;
17949;SDS011;9100;48.700;9.316;2022-10-31T02:09:58;7.5;;;5.7;;
17949;SDS011;9100;48.700;9.316;2022-10-31T02:10:58;7.5;;;5.7;;
17949;SDS011;9100;48.700;9.316;2022-10-31T02:11:58;7.5;;;5.7;;
17949;SDS011;9100;48.700;9.316;2022-10-31T02:12:58;7.5;;;5.7;;
17949;SDS011;9100;48.700;9.316;2022-10-31T02:13:08;15.8;;;6.6;;
17949;SDS011;9100;48.700;9.316;2022-10-31T02:13:58;15.8;;;6.6;;
17949;SDS011;9100;48.700;9.316;2022-10-31T02:14:58;15.8;;;6.6;;
17949;SDS011;9100;48.700;9.316;2022-10-31T02:15:58;15.8;;;6.6;;
17949;SDS011;9100;48.700;9.316;2022-10-31T02:16:58;15.8;;;6.6;;
17949;SDS011;9100;48.700;9.316;2022-10-31T02:17:58;15.8;;;6.6;;
17949;SDS011;9100;48.700;9.316;2022-10-31T02:18:08;8.4;;;6.3;;
17949;SDS011;9100;48.700;9.316;2022-10-31T02:18:58;8.4;;;6.3;;
17949;SDS011;9100;48.700;9.316;2022-10-31T02:20:00;8.4;;;6.3;;
17949;SDS011;9100;48.700;9.316;2022-10-31T02:20:59;8.4;;;6.3;;
17949;SDS011;9100;48.700;9.316;2022-10-31T02:21:59;8.4;;;6.3;;
17949;SDS011;9100;48.700;9.316;2022-10-31T02:23:05;8.4;;;6.3;;
17949;SDS011;9100;48.700;9.316;2022-10-31T02:23:21;7;;;6.3;;
17949;SDS011;9100;48.700;9.316;2022-10-31T02:24:11;7;;;6.3;;
17949;SDS011;9100;48.700;9.316;2022-10-31T02:25:01;7;;;6.3;;
17949;SDS011;9100;48.700;9.316;2022-10-31T02:26:04;7;;;6.3;;
17949;SDS011;9100;48.700;9.316;2022-10-31T02:27:01;7;;;6.3;;
17949;SDS011;9100;48.700;9.316;2022-10-31T02:28:01;7;;;6.3;;
17949;SDS011;9100;48.700;9.316;2022-10-31T02:28:15;7.5;;;6;;
17949;SDS011;9100;48.700;9.316;2022-10-31T02:29:05;7.5;;;6;;
17949;SDS011;9100;48.700;9.316;2022-10-31T02:30:04;7.5;;;6;;
17949;SDS011;9100;48.700;9.316;2022-10-31T02:31:00;7.5;;;6;;
17949;SDS011;9100;48.700;9.316;2022-10-31T02:31:58;7.5;;;6;;
17949;SDS011;9100;48.700;9.316;2022-10-31T02:33:00;7.5;;;6;;
17949;SDS011;9100;48.700;9.316;2022-10-31T02:33:11;6.5;;;5.5;;
17949;SDS011;9100;48.700;9.316;2022-10-31T02:33:59;6.5;;;5.5;;
17949;SDS011;9100;48.700;9.316;2022-10-31T02:34:58;6.5;;;5.5;;
17949;SDS011;9100;48.700;9.316;2022-10-31T02:36:00;6.5;;;5.5;;
17949;SDS011;9100;48.700;9.316;2022-10-31T02:36:58;6.5;;;5.5;;
17949;SDS011;9100;48.700;9.316;2022-10-31T02:38:01;6.5;;;5.5;;
17949;SDS011;9100;48.700;9.316;2022-10-31T02:38:12;9.2;;;5.5;;
17949;SDS011;9100;48.700;9.316;2022-10-31T02:39:00;9.2;;;5.5;;
17949;SDS011;9100;48.700;9.316;2022-10-31T02:39:59;9.2;;;5.5;;
17949;SDS011;9100;48.700;9.316;2022-10-31T02:41:00;9.2;;;5.5;;
17949;SDS011;9100;48.700;9.316;2022-10-31T02:42:01;9.2;;;5.5;;
17949;SDS011;9100;48.700;9.316;2022-10-31T02:42:59;9.2;;;5.5;;
17949;SDS011;9100;48.700;9.316;2022-10-31T02:43:09;7;;;5.5;;
17949;SDS011;9100;48.700;9.316;2022-10-31T02:44:00;7;;;5.5;;
17949;SDS011;9100;48.700;9.316;2022-10-31T02:44:59;7;;;5.5;;
17949;SDS011;9100;48.700;9.316;2022-10-31T02:45:58;7;;;5.5;;
17949;SDS011;9100;48.700;9.316;2022-10-31T02:46:58;7;;;5.5;;
17949;SDS011;9100;48.700;9.316;2022-10-31T02:47:58;7;;;5.5;;
17949;SDS011;9100;48.700;9.316;2022-10-31T02:48:09;11.3;;;5.5;;
17949;SDS011;9100;48.700;9.316;2022-10-31T02:49:00;11.3;;;5.5;;
17949;SDS011;9100;48.700;9.316;2022-10-31T02:49:59;11.3;;;5.5;;
17949;SDS011;9100;48.700;9.316;2022-10-31T02:50:59;11.3;;;5.5;;
17949;SDS011;9100;48.700;9.316;2022-10-31T02:51:58;11.3;;;5.5;;
17949;SDS011;9100;48.700;9.316;2022-10-31T02:52:58;11.3;;;5.5;;
17949;SDS011;9100;48.700;9.316;2022-10-31T02:53:08;6.2;;;5.2;;
17949;SDS011;9100;48.700;9.316;2022-10-31T02:53:58;6.2;;;5.2;;
17949;SDS011;9100;48.700;9.316;2022-10-31T02:54:58;6.2;;;5.2;;
17949;SDS011;9100;48.700;9.316;2022-10-31T02:55:58;6.2;;;5.2;;
17949;SDS011;9100;48.700;9.316;2022-10-31T02:56:58;6.2;;;5.2;;
17949;SDS011;9100;48.700;9.316;2022-10-31T02:57:58;6.2;;;5.2;;
17949;SDS011;9100;48.700;9.316;2022-10-31T02:58:08;9.9;;;5.1;;
17949;SDS011;9100;48.700;9.316;2022-10-31T02:58:58;9.9;;;5.1;;
17949;SDS011;9100;48.700;9.316;2022-10-31T02:59:58;9.9;;;5.1;;
17949;SDS011;9100;48.700;9.316;2022-10-31T03:01:01;9.9;;;5.1;;
17949;SDS011;9100;48.700;9.316;2022-10-31T03:02:02;9.9;;;5.1;;
17949;SDS011;9100;48.700;9.316;2022-10-31T03:02:59;9.9;;;5.1;;
17949;SDS011;9100;48.700;9.316;2022-10-31T03:03:08;10.8;;;5.6;;
17949;SDS011;9100;48.700;9.316;2022-10-31T03:04:02;10.8;;;5.6;;
17949;SDS011;9100;48.700;9.316;2022-10-31T03:05:04;10.8;;;5.6;;
17949;SDS011;9100;48.700;9.316;2022-10-31T03:05:58;10.8;;;5.6;;
17949;SDS011;9100;48.700;9.316;2022-10-31T03:06:59;10.8;;;5.6;;
17949;SDS011;9100;48.700;9.316;2022-10-31T03:07:59;10.8;;;5.6;;
17949;SDS011;9100;48.700;9.316;2022-10-31T03:08:10;7.5;;;5;;
17949;SDS011;9100;48.700;9.316;2022-10-31T03:09:00;7.5;;;5;;
17949;SDS011;9100;48.700;9.316;2022-10-31T03:10:01;7.5;;;5;;
17949;SDS011;9100;48.700;9.316;2022-10-31T03:10:58;7.5;;;5;;
17949;SDS011;9100;48.700;9.316;2022-10-31T03:11:58;7.5;;;5;;
17949;SDS011;9100;48.700;9.316;2022-10-31T03:12:58;7.5;;;5;;
17949;SDS011;9100;48.700;9.316;2022-10-31T03:13:09;5.4;;;4.6;;
17949;SDS011;9100;48.700;9.316;2022-10-31T03:13:59;5.4;;;4.6;;
17949;SDS011;9100;48.700;9.316;2022-10-31T03:15:00;5.4;;;4.6;;
17949;SDS011;9100;48.700;9.316;2022-10-31T03:16:00;5.4;;;4.6;;
17949;SDS011;9100;48.700;9.316;2022-10-31T03:16:58;5.4;;;4.6;;
17949;SDS011;9100;48.700;9.316;2022-10-31T03:17:59;5.4;;;4.6;;
17949;SDS011;9100;48.700;9.316;2022-10-31T03:18:09;33.4;;;5.1;;
17949;SDS011;9100;48.700;9.316;2022-10-31T03:18:59;33.4;;;5.1;;
17949;SDS011;9100;48.700;9.316;2022-10-31T03:19:58;33.4;;;5.1;;
17949;SDS011;9100;48.700;9.316;2022-10-31T03:20:58;33.4;;;5.1;;
17949;SDS011;9100;48.700;9.316;2022-10-31T03:21:58;33.4;;;5.1;;
17949;SDS011;9100;48.700;9.316;2022-10-31T03:22:58;33.4;;;5.1;;
17949;SDS011;9100;48.700;9.316;2022-10-31T03:23:10;8.2;;;4.8;;
17949;SDS011;9100;48.700;9.316;2022-10-31T03:23:58;8.2;;;4.8;;
17949;SDS011;9100;48.700;9.316;2022-10-31T03:24:58;8.2;;;4.8;;
17949;SDS011;9100;48.700;9.316;2022-10-31T03:25:58;8.2;;;4.8;;
17949;SDS011;9100;48.700;9.316;2022-10-31T03:26:58;8.2;;;4.8;;
17949;SDS011;9100;48.700;9.316;2022-10-31T03:27:58;8.2;;;4.8;;
17949;SDS011;9100;48.700;9.316;2022-10-31T03:28:08;9.6;;;4.9;;
17949;SDS011;9100;48.700;9.316;2022-10-31T03:28:59;9.6;;;4.9;;
17949;SDS011;9100;48.700;9.316;2022-10-31T03:29:58;9.6;;;4.9;;
17949;SDS011;9100;48.700;9.316;2022-10-31T03:30:58;9.6;;;4.9;;
17949;SDS011;9100;48.700;9.316;2022-10-31T03:31:58;9.6;;;4.9;;
17949;SDS011;9100;48.700;9.316;2022-10-31T03:32:58;9.6;;;4.9;;
17949;SDS011;9100;48.700;9.316;2022-10-31T03:33:09;9.1;;;5.4;;
17949;SDS011;9100;48.700;9.316;2022-10-31T03:33:58;9.1;;;5.4;;
17949;SDS011;9100;48.700;9.316;2022-10-31T03:34:59;9.1;;;5.4;;
17949;SDS011;9100;48.700;9.316;2022-10-31T03:35:58;9.1;;;5.4;;
17949;SDS011;9100;48.700;9.316;2022-10-31T03:36:58;9.1;;;5.4;;
17949;SDS011;9100;48.700;9.316;2022-10-31T03:37:58;9.1;;;5.4;;
17949;SDS011;9100;48.700;9.316;2022-10-31T03:38:08;8.3;;;4.9;;
17949;SDS011;9100;48.700;9.316;2022-10-31T03:38:58;8.3;;;4.9;;
17949;SDS011;9100;48.700;9.316;2022-10-31T03:39:58;8.3;;;4.9;;
17949;SDS011;9100;48.700;9.316;2022-10-31T03:40:58;8.3;;;4.9;;
17949;SDS011;9100;48.700;9.316;2022-10-31T03:41:59;8.3;;;4.9;;
17949;SDS011;9100;48.700;9.316;2022-10-31T03:42:59;8.3;;;4.9;;
17949;SDS011;9100;48.700;9.316;2022-10-31T03:43:09;6.6;;;4.5;;
17949;SDS011;9100;48.700;9.316;2022-10-31T03:43:59;6.6;;;4.5;;
17949;SDS011;9100;48.700;9.316;2022-10-31T03:44:59;6.6;;;4.5;;
17949;SDS011;9100;48.700;9.316;2022-10-31T03:45:58;6.6;;;4.5;;
17949;SDS011;9100;48.700;9.316;2022-10-31T03:46:58;6.6;;;4.5;;
17949;SDS011;9100;48.700;9.316;2022-10-31T03:47:58;6.6;;;4.5;;
17949;SDS011;9100;48.700;9.316;2022-10-31T03:48:08;4.9;;;4.4;;
17949;SDS011;9100;48.700;9.316;2022-10-31T03:48:58;4.9;;;4.4;;
17949;SDS011;9100;48.700;9.316;2022-10-31T03:49:58;4.9;;;4.4;;
17949;SDS011;9100;48.700;9.316;2022-10-31T03:50:58;4.9;;;4.4;;
17949;SDS011;9100;48.700;9.316;2022-10-31T03:51:59;4.9;;;4.4;;
17949;SDS011;9100;48.700;9.316;2022-10-31T03:52:58;4.9;;;4.4;;
17949;SDS011;9100;48.700;9.316;2022-10-31T03:53:09;5.7;;;5.1;;
17949;SDS011;9100;48.700;9.316;2022-10-31T03:54:01;5.7;;;5.1;;
17949;SDS011;9100;48.700;9.316;2022-10-31T03:54:58;5.7;;;5.1;;
17949;SDS011;9100;48.700;9.316;2022-10-31T03:55:59;5.7;;;5.1;;
17949;SDS011;9100;48.700;9.316;2022-10-31T03:56:59;5.7;;;5.1;;
17949;SDS011;9100;48.700;9.316;2022-10-31T03:57:59;5.7;;;5.1;;
17949;SDS011;9100;48.700;9.316;2022-10-31T03:58:09;8.3;;;5.5;;
17949;SDS011;9100;48.700;9.316;2022-10-31T03:58:59;8.3;;;5.5;;
17949;SDS011;9100;48.700;9.316;2022-10-31T03:59:58;8.3;;;5.5;;
17949;SDS011;9100;48.700;9.316;2022-10-31T04:00:58;8.3;;;5.5;;
17949;SDS011;9100;48.700;9.316;2022-10-31T04:01:59;8.3;;;5.5;;
17949;SDS011;9100;48.700;9.316;2022-10-31T04:02:58;8.3;;;5.5;;
17949;SDS011;9100;48.700;9.316;2022-10-31T04:03:09;12.3;;;5;;
17949;SDS011;9100;48.700;9.316;2022-10-31T04:03:58;12.3;;;5;;
17949;SDS011;9100;48.700;9.316;2022-10-31T04:04:58;12.3;;;5;;
17949;SDS011;9100;48.700;9.316;2022-10-31T04:05:58;12.3;;;5;;
17949;SDS011;9100;48.700;9.316;2022-10-31T04:06:58;12.3;;;5;;
17949;SDS011;9100;48.700;9.316;2022-10-31T04:07:58;12.3;;;5;;
17949;SDS011;9100;48.700;9.316;2022-10-31T04:08:09;9.4;;;5.2;;
17949;SDS011;9100;48.700;9.316;2022-10-31T04:08:59;9.4;;;5.2;;
17949;SDS011;9100;48.700;9.316;2022-10-31T04:09:58;9.4;;;5.2;;
17949;SDS011;9100;48.700;9.316;2022-10-31T04:10:58;9.4;;;5.2;;
17949;SDS011;9100;48.700;9.316;2022-10-31T04:11:58;9.4;;;5.2;;
17949;SDS011;9100;48.700;9.316;2022-10-31T04:12:58;9.4;;;5.2;;
17949;SDS011;9100;48.700;9.316;2022-10-31T04:13:09;7.9;;;5.5;;
17949;SDS011;9100;48.700;9.316;2022-10-31T04:13:58;7.9;;;5.5;;
17949;SDS011;9100;48.700;9.316;2022-10-31T04:14:58;7.9;;;5.5;;
17949;SDS011;9100;48.700;9.316;2022-10-31T04:15:58;7.9;;;5.5;;
17949;SDS011;9100;48.700;9.316;2022-10-31T04:16:58;7.9;;;5.5;;
17949;SDS011;9100;48.700;9.316;2022-10-31T04:17:58;7.9;;;5.5;;
17949;SDS011;9100;48.700;9.316;2022-10-31T04:18:08;6.8;;;5.2;;
17949;SDS011;9100;48.700;9.316;2022-10-31T04:18:58;6.8;;;5.2;;
17949;SDS011;9100;48.700;9.316;2022-10-31T04:19:58;6.8;;;5.2;;
17949;SDS011;9100;48.700;9.316;2022-10-31T04:20:59;6.8;;;5.2;;
17949;SDS011;9100;48.700;9.316;2022-10-31T04:21:58;6.8;;;5.2;;
17949;SDS011;9100;48.700;9.316;2022-10-31T04:22:58;6.8;;;5.2;;
17949;SDS011;9100;48.700;9.316;2022-10-31T04:23:11;7.2;;;4.9;;
17949;SDS011;9100;48.700;9.316;2022-10-31T04:23:58;7.2;;;4.9;;
17949;SDS011;9100;48.700;9.316;2022-10-31T04:24:58;7.2;;;4.9;;
17949;SDS011;9100;48.700;9.316;2022-10-31T04:25:58;7.2;;;4.9;;
17949;SDS011;9100;48.700;9.316;2022-10-31T04:26:58;7.2;;;4.9;;
17949;SDS011;9100;48.700;9.316;2022-10-31T04:27:58;7.2;;;4.9;;
17949;SDS011;9100;48.700;9.316;2022-10-31T04:28:08;7.2;;;5.1;;
17949;SDS011;9100;48.700;9.316;2022-10-31T04:28:58;7.2;;;5.1;;
17949;SDS011;9100;48.700;9.316;2022-10-31T04:29:58;7.2;;;5.1;;
17949;SDS011;9100;48.700;9.316;2022-10-31T04:30:58;7.2;;;5.1;;
17949;SDS011;9100;48.700;9.316;2022-10-31T04:31:58;7.2;;;5.1;;
17949;SDS011;9100;48.700;9.316;2022-10-31T04:32:58;7.2;;;5.1;;
17949;SDS011;9100;48.700;9.316;2022-10-31T04:33:08;9.3;;;4.9;;
17949;SDS011;9100;48.700;9.316;2022-10-31T04:33:58;9.3;;;4.9;;
17949;SDS011;9100;48.700;9.316;2022-10-31T04:34:58;9.3;;;4.9;;
17949;SDS011;9100;48.700;9.316;2022-10-31T04:35:58;9.3;;;4.9;;
17949;SDS011;9100;48.700;9.316;2022-10-31T04:36:58;9.3;;;4.9;;
17949;SDS011;9100;48.700;9.316;2022-10-31T04:37:58;9.3;;;4.9;;
17949;SDS011;9100;48.700;9.316;2022-10-31T04:38:08;11.3;;;4.3;;
17949;SDS011;9100;48.700;9.316;2022-10-31T04:38:58;11.3;;;4.3;;
17949;SDS011;9100;48.700;9.316;2022-10-31T04:39:58;11.3;;;4.3;;
17949;SDS011;9100;48.700;9.316;2022-10-31T04:40:58;11.3;;;4.3;;
17949;SDS011;9100;48.700;9.316;2022-10-31T04:41:58;11.3;;;4.3;;
17949;SDS011;9100;48.700;9.316;2022-10-31T04:42:58;11.3;;;4.3;;
17949;SDS011;9100;48.700;9.316;2022-10-31T04:43:08;6.3;;;5.1;;
17949;SDS011;9100;48.700;9.316;2022-10-31T04:43:58;6.3;;;5.1;;
17949;SDS011;9100;48.700;9.316;2022-10-31T04:44:58;6.3;;;5.1;;
17949;SDS011;9100;48.700;9.316;2022-10-31T04:45:58;6.3;;;5.1;;
17949;SDS011;9100;48.700;9.316;2022-10-31T04:46:58;6.3;;;5.1;;
17949;SDS011;9100;48.700;9.316;2022-10-31T04:47:58;6.3;;;5.1;;
17949;SDS011;9100;48.700;9.316;2022-10-31T04:48:08;5.5;;;5;;
17949;SDS011;9100;48.700;9.316;2022-10-31T04:48:58;5.5;;;5;;
17949;SDS011;9100;48.700;9.316;2022-10-31T04:49:58;5.5;;;5;;
17949;SDS011;9100;48.700;9.316;2022-10-31T04:50:58;5.5;;;5;;
17949;SDS011;9100;48.700;9.316;2022-10-31T04:51:58;5.5;;;5;;
17949;SDS011;9100;48.700;9.316;2022-10-31T04:52:58;5.5;;;5;;
17949;SDS011;9100;48.700;9.316;2022-10-31T04:53:08;4.9;;;4.4;;
17949;SDS011;9100;48.700;9.316;2022-10-31T04:53:58;4.9;;;4.4;;
17949;SDS011;9100;48.700;9.316;2022-10-31T04:54:58;4.9;;;4.4;;
17949;SDS011;9100;48.700;9.316;2022-10-31T04:55:58;4.9;;;4.4;;
17949;SDS011;9100;48.700;9.316;2022-10-31T04:56:58;4.9;;;4.4;;
17949;SDS011;9100;48.700;9.316;2022-10-31T04:57:58;4.9;;;4.4;;
17949;SDS011;9100;48.700;9.316;2022-10-31T04:58:08;5;;;4.5;;
17949;SDS011;9100;48.700;9.316;2022-10-31T04:58:58;5;;;4.5;;
17949;SDS011;9100;48.700;9.316;2022-10-31T04:59:58;5;;;4.5;;
17949;SDS011;9100;48.700;9.316;2022-10-31T05:00:58;5;;;4.5;;
17949;SDS011;9100;48.700;9.316;2022-10-31T05:01:58;5;;;4.5;;
17949;SDS011;9100;48.700;9.316;2022-10-31T05:02:58;5;;;4.5;;
17949;SDS011;9100;48.700;9.316;2022-10-31T05:03:08;7.5;;;4.4;;
17949;SDS011;9100;48.700;9.316;2022-10-31T05:03:58;7.5;;;4.4;;
17949;SDS011;9100;48.700;9.316;2022-10-31T05:04:58;7.5;;;4.4;;
17949;SDS011;9100;48.700;9.316;2022-10-31T05:05:58;7.5;;;4.4;;
17949;SDS011;9100;48.700;9.316;2022-10-31T05:06:58;7.5;;;4.4;;
17949;SDS011;9100;48.700;9.316;2022-10-31T05:07:58;7.5;;;4.4;;
17949;SDS011;9100;48.700;9.316;2022-10-31T05:08:08;6.6;;;4.7;;
17949;SDS011;9100;48.700;9.316;2022-10-31T05:08:58;6.6;;;4.7;;
17949;SDS011;9100;48.700;9.316;2022-10-31T05:09:58;6.6;;;4.7;;
17949;SDS011;9100;48.700;9.316;2022-10-31T05:10:59;6.6;;;4.7;;
17949;SDS011;9100;48.700;9.316;2022-10-31T05:11:58;6.6;;;4.7;;
17949;SDS011;9100;48.700;9.316;2022-10-31T05:12:58;6.6;;;4.7;;
17949;SDS011;9100;48.700;9.316;2022-10-31T05:13:08;13.1;;;5.1;;
17949;SDS011;9100;48.700;9.316;2022-10-31T05:13:58;13.1;;;5.1;;
17949;SDS011;9100;48.700;9.316;2022-10-31T05:14:58;13.1;;;5.1;;
17949;SDS011;9100;48.700;9.316;2022-10-31T05:15:58;13.1;;;5.1;;
17949;SDS011;9100;48.700;9.316;2022-10-31T05:16:58;13.1;;;5.1;;